Time;durP1;ratioP1;P1;durP2;ratioP2;P2;SDS_P1;SDS_P2;PMS_P1;PMS_P2;Temp;Humidity;BMP_temperature;BMP_pressure;BME280_temperature;BME280_humidity;BME280_pressure;Samples;Min_cycle;Max_cycle;Signal;HPM_P1;HPM_P2
2020/12/12 00:00:35;;;;;;;38.83;22.53;;;0.50;99.90;;;-1.35;100.00;98735.13;5022339;27;100352;-62
2020/12/12 00:03:01;;;;;;;39.40;20.70;;;0.30;99.90;;;-1.51;100.00;98738.97;5029284;27;100618;-61
2020/12/12 00:05:28;;;;;;;39.93;21.20;;;0.30;99.90;;;-1.64;100.00;98734.81;5029175;27;100712;-61
2020/12/12 00:07:54;;;;;;;39.73;23.03;;;0.30;99.90;;;-1.65;100.00;98738.38;5029128;27;100151;-61
2020/12/12 00:10:24;;;;;;;40.00;23.23;;;0.20;99.90;;;-1.74;100.00;98739.94;5029395;27;99995;-61
2020/12/12 00:12:51;;;;;;;34.83;20.23;;;0.20;99.90;;;-1.72;100.00;98735.38;5027370;27;101223;-62
2020/12/12 00:15:17;;;;;;;45.37;23.43;;;0.10;99.90;;;-1.90;100.00;98727.16;5029254;27;100319;-61
2020/12/12 00:17:44;;;;;;;34.47;21.90;;;0.00;99.90;;;-1.92;100.00;98736.09;5029050;27;100044;-61
2020/12/12 00:20:11;;;;;;;37.00;20.67;;;0.00;99.90;;;-1.83;100.00;98732.75;5011736;27;100212;-61
2020/12/12 00:22:37;;;;;;;38.83;22.77;;;0.00;99.90;;;-1.85;100.00;98732.88;5007670;27;100975;-61
2020/12/12 00:25:04;;;;;;;40.57;21.87;;;-0.10;99.90;;;-1.96;100.00;98735.50;5014771;27;100292;-61
2020/12/12 00:27:31;;;;;;;39.00;23.30;;;-0.10;99.90;;;-2.08;100.00;98739.03;5028949;27;100207;-62
2020/12/12 00:29:57;;;;;;;40.93;23.27;;;-0.10;99.90;;;-2.30;100.00;98739.00;5028945;27;99993;-61
2020/12/12 00:32:24;;;;;;;37.83;20.97;;;-0.20;99.90;;;-2.14;100.00;98730.81;5028356;27;101970;-60
2020/12/12 00:34:50;;;;;;;40.37;23.03;;;-0.80;99.90;;;-2.10;100.00;98735.69;5028479;27;100742;-62
2020/12/12 00:37:18;;;;;;;41.17;20.77;;;-0.40;99.90;;;-2.11;100.00;98730.59;5029227;27;100030;-61
2020/12/12 00:39:45;;;;;;;38.63;21.87;;;-0.40;99.90;;;-2.09;100.00;98726.88;5029285;27;100059;-61
2020/12/12 00:42:12;;;;;;;34.27;19.97;;;0.10;99.90;;;-2.10;100.00;98733.09;5028565;27;100710;-62
2020/12/12 00:44:39;;;;;;;36.07;20.80;;;-0.50;99.90;;;-2.06;100.00;98728.44;5043096;27;103192;-61
2020/12/12 00:47:06;;;;;;;42.17;22.93;;;-0.60;99.90;;;-2.21;100.00;98733.06;5023475;27;100911;-62
2020/12/12 00:49:33;;;;;;;41.67;21.93;;;-0.30;99.90;;;-2.36;100.00;98729.84;5008220;27;100189;-61
2020/12/12 00:51:59;;;;;;;33.73;18.57;;;-0.40;99.90;;;-2.05;100.00;98725.72;5008366;27;100879;-62
2020/12/12 00:54:26;;;;;;;40.87;21.23;;;-0.50;99.90;;;-2.31;100.00;98732.94;5006337;27;102391;-62
2020/12/12 00:56:53;;;;;;;35.33;21.00;;;-0.40;99.90;;;-2.44;100.00;98733.97;5023697;27;100208;-62
2020/12/12 00:59:19;;;;;;;38.50;20.63;;;-0.50;99.90;;;-2.44;100.00;98729.56;5007885;27;100251;-61
2020/12/12 01:01:47;;;;;;;36.40;20.60;;;-0.60;99.90;;;-2.53;100.00;98720.59;5007749;27;101052;-61
2020/12/12 01:04:14;;;;;;;36.30;19.97;;;-0.50;99.90;;;-2.33;100.00;98724.34;5008370;27;100599;-62
2020/12/12 01:06:40;;;;;;;38.90;21.43;;;-0.70;99.90;;;-2.40;100.00;98724.94;5008160;27;99982;-62
2020/12/12 01:09:07;;;;;;;33.00;19.33;;;-0.80;99.90;;;-2.33;100.00;98728.75;5008342;27;100124;-62
2020/12/12 01:11:33;;;;;;;33.07;18.50;;;-0.60;99.90;;;-2.32;100.00;98719.94;5007340;27;100913;-61
2020/12/12 01:14:00;;;;;;;30.37;19.17;;;-0.80;99.90;;;-2.29;100.00;98722.34;5007695;27;101215;-62
2020/12/12 01:16:26;;;;;;;35.00;18.73;;;-0.60;99.90;;;-2.27;100.00;98720.44;5008127;27;100193;-62
2020/12/12 01:18:54;;;;;;;36.70;20.17;;;-0.80;99.90;;;-2.12;100.00;98723.69;5008084;27;99904;-63
2020/12/12 01:21:20;;;;;;;37.50;19.90;;;-0.70;99.90;;;-2.23;100.00;98717.47;5018074;27;101713;-61
2020/12/12 01:23:47;;;;;;;34.37;18.60;;;0.20;99.90;;;-2.15;100.00;98716.88;5027444;27;101765;-62
2020/12/12 01:26:14;;;;;;;35.63;18.33;;;-0.70;99.90;;;-2.04;100.00;98716.91;5028048;27;100029;-61
2020/12/12 01:28:40;;;;;;;31.60;17.13;;;-0.70;99.90;;;-1.93;100.00;98711.66;5026275;27;100237;-61
2020/12/12 01:31:12;;;;;;;32.77;17.93;;;-0.80;99.90;;;-1.88;100.00;98724.44;5027911;27;100616;-61
2020/12/12 01:33:39;;;;;;;29.63;16.67;;;-0.60;99.90;;;-1.95;100.00;98710.13;5027372;27;100577;-61
2020/12/12 01:36:06;;;;;;;29.80;16.60;;;-0.60;99.90;;;-1.97;100.00;98718.09;5026941;27;100063;-61
2020/12/12 01:38:33;;;;;;;26.60;16.00;;;-0.60;99.90;;;-1.95;100.00;98717.97;5027463;27;100126;-61
2020/12/12 01:40:59;;;;;;;26.83;15.70;;;-0.50;99.90;;;-2.04;100.00;98716.91;5027772;27;100875;-61
2020/12/12 01:43:26;;;;;;;25.20;15.00;;;-0.50;99.90;;;-2.03;100.00;98718.56;5028145;27;100618;-61
2020/12/12 01:45:52;;;;;;;25.60;15.03;;;-0.50;99.90;;;-2.18;100.00;98717.13;5027758;27;99964;-61
2020/12/12 01:48:19;;;;;;;23.97;14.53;;;-0.40;99.90;;;-2.34;100.00;98720.06;5025371;27;100134;-61
2020/12/12 01:50:45;;;;;;;26.80;16.23;;;-0.60;99.90;;;-2.38;100.00;98723.03;5006809;27;101561;-62
2020/12/12 01:53:14;;;;;;;25.43;14.43;;;-0.60;99.90;;;-2.55;100.00;98725.13;5007970;27;100603;-63
2020/12/12 01:55:47;;;;;;;26.83;16.23;;;-0.70;99.90;;;-2.50;100.00;98722.16;5006709;27;100052;-61
2020/12/12 01:58:14;;;;;;;25.03;14.60;;;-0.50;99.90;;;-2.25;100.00;98722.00;5008008;27;99954;-61
2020/12/12 02:00:42;;;;;;;24.73;14.20;;;-0.70;99.90;;;-2.42;100.00;98726.81;5006244;27;101047;-61
2020/12/12 02:03:11;;;;;;;23.43;14.07;;;-0.60;99.90;;;-2.25;100.00;98727.25;5006309;27;101286;-61
2020/12/12 02:05:38;;;;;;;24.03;13.80;;;-0.60;99.90;;;-2.32;100.00;98715.53;5007054;27;100266;-62
2020/12/12 02:08:14;;;;;;;23.93;13.87;;;-0.60;99.90;;;-2.19;100.00;98718.06;5007225;27;99998;-61
2020/12/12 02:10:43;;;;;;;19.43;12.73;;;-0.60;99.90;;;-2.20;100.00;98727.72;5007102;27;101462;-61
2020/12/12 02:13:11;;;;;;;21.60;13.43;;;-1.10;99.90;;;-2.24;100.00;98728.06;5006995;27;101828;-61
2020/12/12 02:15:38;;;;;;;20.10;12.37;;;-1.40;99.90;;;-2.24;100.00;98728.06;5006898;27;100287;-61
2020/12/12 02:18:07;;;;;;;21.97;13.63;;;-0.60;99.90;;;-2.18;100.00;98732.84;5025711;27;100323;-61
2020/12/12 02:20:34;;;;;;;19.93;12.80;;;-0.50;99.90;;;-2.19;100.00;98728.53;5026613;27;101644;-61
2020/12/12 02:23:01;;;;;;;22.07;13.33;;;-0.60;99.90;;;-2.23;100.00;98738.44;5026977;27;101162;-61
2020/12/12 02:25:28;;;;;;;19.90;13.03;;;-0.60;99.90;;;-2.23;100.00;98740.22;5026940;27;100318;-61
2020/12/12 02:27:57;;;;;;;19.40;12.47;;;-0.60;99.90;;;-2.22;100.00;98737.47;5027333;27;100502;-62
2020/12/12 02:30:24;;;;;;;20.70;12.80;;;-0.60;99.90;;;-2.30;100.00;98737.22;5026566;27;101406;-61
2020/12/12 02:32:50;;;;;;;17.77;11.80;;;-0.50;99.90;;;-2.35;100.00;98726.22;5026803;27;101853;-60
2020/12/12 02:35:17;;;;;;;20.63;11.93;;;-0.50;99.90;;;-2.41;100.00;98725.88;5025943;27;100164;-63
2020/12/12 02:37:44;;;;;;;19.20;11.60;;;-0.70;99.90;;;-2.51;100.00;98732.75;5027068;27;100324;-61
2020/12/12 02:40:11;;;;;;;19.37;11.90;;;-0.70;99.90;;;-2.38;100.00;98731.72;5027052;27;100861;-60
2020/12/12 02:42:37;;;;;;;18.90;11.67;;;-0.50;99.90;;;-2.37;100.00;98732.56;5027332;27;100674;-61
2020/12/12 02:45:04;;;;;;;18.17;11.30;;;-0.70;99.90;;;-2.47;100.00;98727.16;5016251;27;100053;-61
2020/12/12 02:47:34;;;;;;;16.77;11.67;;;-0.60;99.90;;;-2.39;100.00;98737.09;5006873;27;100098;-63
2020/12/12 02:50:09;;;;;;;16.33;11.60;;;-0.70;99.90;;;-2.46;100.00;98741.91;5005483;27;101210;-63
2020/12/12 02:52:36;;;;;;;19.03;11.27;;;-0.60;99.90;;;-2.46;100.00;98741.91;5006137;27;100249;-63
2020/12/12 02:55:05;;;;;;;19.27;10.57;;;-0.60;99.90;;;-2.41;100.00;98744.22;5011255;27;100035;-62
2020/12/12 02:57:32;;;;;;;16.03;11.03;;;-0.70;99.90;;;-2.45;100.00;98738.34;5006584;27;100330;-62
2020/12/12 02:59:59;;;;;;;18.23;11.23;;;-1.20;99.90;;;-2.45;100.00;98743.59;5005572;27;101369;-62
2020/12/12 03:02:26;;;;;;;15.40;10.53;;;-0.80;99.90;;;-2.45;100.00;98743.59;5006598;27;100507;-61
2020/12/12 03:04:52;;;;;;;15.50;10.60;;;-0.60;99.90;;;-2.49;100.00;98742.19;5007428;27;100262;-62
2020/12/12 03:07:19;;;;;;;17.73;11.03;;;-0.70;99.90;;;-2.50;100.00;98739.66;5010664;27;100212;-61
2020/12/12 03:09:46;;;;;;;15.87;11.50;;;0.60;99.90;;;-2.36;100.00;98737.69;5012461;27;101065;-61
2020/12/12 03:12:13;;;;;;;19.97;10.87;;;-0.60;99.90;;;-2.32;100.00;98738.28;5029798;27;100295;-62
2020/12/12 03:14:40;;;;;;;18.03;10.70;;;-0.60;99.90;;;-2.28;100.00;98737.09;5029768;27;100226;-61
2020/12/12 03:17:09;;;;;;;17.70;10.47;;;-0.60;99.90;;;-2.32;100.00;98731.25;5029785;27;100072;-60
2020/12/12 03:19:36;;;;;;;18.53;10.97;;;-0.60;99.90;;;-2.41;100.00;98733.72;5029478;27;100948;-62
2020/12/12 03:22:03;;;;;;;15.10;10.47;;;-0.60;99.90;;;-2.39;100.00;98729.22;5029726;27;101041;-63
2020/12/12 03:24:29;;;;;;;14.03;9.67;;;-0.50;99.90;;;-2.46;100.00;98722.75;5029818;27;100046;-61
2020/12/12 03:26:56;;;;;;;16.80;10.73;;;0.10;99.90;;;-2.42;100.00;98721.59;5030751;27;99925;-61
2020/12/12 03:29:22;;;;;;;14.03;10.17;;;-0.50;99.90;;;-2.38;100.00;98721.25;5029884;27;101510;-62
2020/12/12 03:31:53;;;;;;;14.77;10.40;;;-0.60;99.90;;;-2.34;100.00;98730.53;5030485;27;100384;-59
2020/12/12 03:34:19;;;;;;;17.90;10.37;;;-0.60;99.90;;;-2.35;100.00;98722.81;5020846;27;100158;-61
2020/12/12 03:36:49;;;;;;;14.20;10.30;;;-0.50;99.90;;;-2.32;100.00;98725.19;5010147;27;99888;-64
2020/12/12 03:39:15;;;;;;;17.53;10.60;;;-0.30;99.90;;;-2.29;100.00;98724.94;5023682;27;100647;-62
2020/12/12 03:41:41;;;;;;;16.67;10.23;;;-0.40;99.90;;;-2.33;100.00;98729.59;5029076;27;101058;-62
2020/12/12 03:44:08;;;;;;;13.97;10.00;;;-0.40;99.90;;;-2.25;100.00;98727.25;5029984;27;99945;-62
2020/12/12 03:46:34;;;;;;;14.17;10.50;;;-0.20;99.90;;;-2.24;100.00;98722.84;5029847;27;100015;-61
2020/12/12 03:49:01;;;;;;;15.40;10.33;;;-0.20;99.90;;;-2.19;100.00;98728.53;5029502;27;100825;-62
2020/12/12 03:51:28;;;;;;;12.93;9.53;;;-0.30;99.90;;;-2.21;100.00;98735.69;5029130;27;100598;-62
2020/12/12 03:53:54;;;;;;;16.57;10.97;;;-0.30;99.90;;;-2.19;100.00;98739.03;5023240;27;100240;-62
2020/12/12 03:56:21;;;;;;;14.60;9.53;;;-0.20;99.90;;;-2.17;100.00;98734.50;5009806;27;100191;-62
2020/12/12 03:58:47;;;;;;;15.40;10.57;;;-0.30;99.90;;;-2.15;100.00;98734.41;5008500;27;100994;-62
2020/12/12 04:01:14;;;;;;;15.17;9.50;;;-0.20;99.90;;;-2.15;100.00;98735.22;5007222;27;101228;-63
2020/12/12 04:03:40;;;;;;;14.40;10.17;;;-0.20;99.90;;;-2.13;100.00;98733.34;5007605;27;100334;-63
2020/12/12 04:06:07;;;;;;;14.20;9.90;;;-0.20;99.90;;;-2.16;100.00;98728.31;5022477;27;100249;-62
2020/12/12 04:08:34;;;;;;;12.73;9.47;;;-0.10;99.90;;;-2.12;100.00;98736.78;5027765;27;100945;-62
2020/12/12 04:11:01;;;;;;;13.73;9.63;;;-0.10;99.90;;;-2.13;100.00;98735.97;5026129;27;100559;-62
2020/12/12 04:13:28;;;;;;;14.63;10.13;;;-0.10;99.90;;;-2.12;100.00;98732.38;5028381;27;99966;-63
2020/12/12 04:15:54;;;;;;;14.60;9.33;;;-0.10;99.90;;;-2.09;100.00;98731.28;5027980;27;100073;-62
2020/12/12 04:18:21;;;;;;;12.53;9.07;;;-0.20;99.90;;;-2.11;100.00;98731.44;5027433;27;100678;-63
2020/12/12 04:20:47;;;;;;;13.37;9.50;;;0.20;99.90;;;-2.08;100.00;98728.56;5028148;27;100309;-60
2020/12/12 04:23:15;;;;;;;12.20;8.90;;;0.00;99.90;;;-2.12;100.00;98727.16;5008633;27;99950;-62
2020/12/12 04:25:42;;;;;;;12.90;9.13;;;0.00;99.90;;;-2.10;100.00;98730.47;5007010;27;100312;-63
2020/12/12 04:28:08;;;;;;;13.57;9.73;;;0.10;99.90;;;-2.07;100.00;98729.41;5004622;27;103036;-63
2020/12/12 04:30:35;;;;;;;13.53;9.40;;;0.00;99.90;;;-2.08;100.00;98727.72;5007577;27;100263;-62
2020/12/12 04:33:01;;;;;;;13.27;9.23;;;0.00;99.90;;;-2.08;100.00;98725.94;5008310;27;100082;-63
2020/12/12 04:35:28;;;;;;;13.30;8.30;;;0.00;99.90;;;-2.10;100.00;98722.59;5027693;27;100126;-61
2020/12/12 04:37:54;;;;;;;13.13;9.43;;;0.00;99.90;;;-2.03;100.00;98730.84;5025202;27;101291;-63
2020/12/12 04:40:22;;;;;;;11.73;8.00;;;0.10;99.90;;;-2.03;100.00;98725.59;5027421;27;100335;-62
2020/12/12 04:42:49;;;;;;;11.73;8.67;;;0.00;99.90;;;-2.01;100.00;98729.78;5028030;27;99941;-62
2020/12/12 04:45:20;;;;;;;14.33;9.13;;;0.10;99.90;;;-2.00;100.00;98725.38;5027863;27;100156;-63
2020/12/12 04:47:49;;;;;;;11.73;8.70;;;0.00;99.90;;;-1.99;100.00;98727.88;5041991;27;101293;-63
2020/12/12 04:50:17;;;;;;;10.97;8.47;;;0.00;99.90;;;-2.00;100.00;98728.00;5027090;27;100176;-62
2020/12/12 04:52:44;;;;;;;10.33;8.00;;;-0.10;99.90;;;-1.99;100.00;98725.25;5027443;27;100049;-62
2020/12/12 04:55:11;;;;;;;10.90;8.23;;;0.10;99.90;;;-1.97;100.00;98725.94;5027272;27;100122;-62
2020/12/12 04:57:39;;;;;;;12.03;8.57;;;0.00;99.90;;;-1.96;100.00;98725.00;5026566;27;101137;-62
2020/12/12 05:00:10;;;;;;;19.03;12.60;;;0.20;99.90;;;-1.91;100.00;98733.38;5005003;27;639520;-63
2020/12/12 05:02:37;;;;;;;13.27;9.67;;;1.00;99.90;;;-1.90;100.00;98728.97;5023528;27;99876;-62
2020/12/12 05:05:04;;;;;;;14.20;12.00;;;0.80;99.90;;;-1.91;100.00;98724.66;5008382;27;100204;-62
2020/12/12 05:07:30;;;;;;;16.10;13.53;;;0.10;99.90;;;-1.91;100.00;98722.03;5008113;27;100715;-62
2020/12/12 05:09:57;;;;;;;12.27;8.70;;;0.20;99.90;;;-1.89;100.00;98720.13;5007994;27;100371;-63
2020/12/12 05:12:23;;;;;;;10.83;7.63;;;0.20;99.90;;;-1.86;100.00;98718.13;5008047;27;99898;-63
2020/12/12 05:14:52;;;;;;;11.03;7.97;;;0.20;99.90;;;-1.86;100.00;98723.38;5007996;27;100137;-63
2020/12/12 05:17:20;;;;;;;11.80;7.87;;;0.20;99.90;;;-1.86;100.00;98715.50;5007513;27;100856;-63
2020/12/12 05:19:48;;;;;;;10.17;7.73;;;0.20;99.90;;;-1.86;100.00;98712.88;5007174;27;100861;-63
2020/12/12 05:22:16;;;;;;;10.33;7.57;;;0.20;99.90;;;-1.87;100.00;98716.47;5008294;27;100075;-63
2020/12/12 05:24:43;;;;;;;9.80;7.57;;;0.30;99.90;;;-1.87;100.00;98716.47;5007933;27;100085;-61
2020/12/12 05:27:10;;;;;;;10.77;7.97;;;0.30;99.90;;;-1.85;100.00;98717.16;5008562;27;99857;-62
2020/12/12 05:29:37;;;;;;;13.57;8.70;;;0.40;99.90;;;-1.81;100.00;98717.75;5016965;27;100730;-64
2020/12/12 05:32:05;;;;;;;9.37;7.43;;;0.30;99.90;;;-1.82;100.00;98719.53;5027957;27;100127;-63
2020/12/12 05:34:31;;;;;;;10.67;7.87;;;0.40;99.90;;;-1.79;100.00;98718.47;5027870;27;100158;-63
2020/12/12 05:36:58;;;;;;;10.57;7.57;;;0.40;99.90;;;-1.77;100.00;98726.22;5027623;27;101110;-64
2020/12/12 05:39:24;;;;;;;10.40;7.43;;;0.20;99.90;;;-1.77;100.00;98720.97;5027305;27;100778;-62
2020/12/12 05:41:51;;;;;;;10.67;8.23;;;0.20;99.90;;;-1.77;100.00;98721.81;5027506;27;100046;-63
2020/12/12 05:44:20;;;;;;;9.47;7.77;;;0.20;99.90;;;-1.76;100.00;98715.63;5027846;27;99855;-63
2020/12/12 05:46:47;;;;;;;9.90;8.07;;;0.50;99.90;;;-1.73;100.00;98719.81;5027241;27;101082;-62
2020/12/12 05:49:15;;;;;;;11.90;9.17;;;0.20;99.90;;;-1.69;100.00;98716.78;5027007;27;100507;-63
2020/12/12 05:51:42;;;;;;;10.00;7.53;;;0.40;99.90;;;-1.67;100.00;98712.28;5028294;27;100513;-63
2020/12/12 05:54:08;;;;;;;10.27;7.67;;;0.40;99.90;;;-1.70;100.00;98719.53;5042626;27;99822;-63
2020/12/12 05:56:35;;;;;;;10.27;7.83;;;0.40;99.90;;;-1.66;100.00;98713.94;5007306;27;100686;-62
2020/12/12 05:59:02;;;;;;;10.10;7.17;;;0.50;99.90;;;-1.66;100.00;98720.97;5006547;27;101264;-62
2020/12/12 06:01:31;;;;;;;9.77;7.67;;;0.40;99.90;;;-1.62;100.00;98722.41;5006884;27;100050;-63
2020/12/12 06:04:03;;;;;;;10.50;8.10;;;0.30;99.90;;;-1.67;100.00;98717.53;5007448;27;100047;-62
2020/12/12 06:06:31;;;;;;;9.67;7.73;;;1.60;99.90;;;-1.63;100.00;98726.81;5006478;27;100682;-64
2020/12/12 06:09:05;;;;;;;11.07;8.27;;;1.20;99.90;;;-1.59;100.00;98714.28;5007073;27;100548;-63
2020/12/12 06:11:33;;;;;;;11.27;8.00;;;0.60;99.90;;;-1.59;100.00;98728.22;5016467;27;99720;-63
2020/12/12 06:14:02;;;;;;;13.27;11.10;;;-0.10;99.90;;;-1.59;100.00;98725.63;5027627;27;99971;-63
2020/12/12 06:16:31;;;;;;;10.60;8.40;;;1.20;99.90;;;-1.58;100.00;98721.19;5026948;27;101682;-61
2020/12/12 06:19:07;;;;;;;11.03;8.70;;;0.40;99.90;;;-1.59;100.00;98720.38;5027344;27;99889;-61
2020/12/12 06:21:36;;;;;;;11.50;9.33;;;0.40;99.90;;;-1.59;100.00;98722.16;5027541;27;99884;-62
2020/12/12 06:24:05;;;;;;;14.23;10.57;;;0.30;99.90;;;-1.62;100.00;98719.78;5011002;27;99948;-61
2020/12/12 06:26:56;;;;;;;10.93;8.93;;;0.40;99.90;;;-1.66;100.00;98727.06;5006020;27;100393;-63
2020/12/12 06:29:28;;;;;;;11.67;9.70;;;0.30;99.90;;;-1.66;100.00;98726.22;5006631;27;100479;-62
2020/12/12 06:31:55;;;;;;;13.23;9.67;;;0.40;99.90;;;-1.64;100.00;98729.56;5006364;27;99946;-61
2020/12/12 06:34:44;;;;;;;15.37;10.50;;;0.20;99.90;;;-1.70;100.00;98735.28;5006412;27;99893;-61
2020/12/12 06:37:32;;;;;;;14.43;10.47;;;0.20;99.90;;;-1.69;100.00;98736.94;5001192;27;100698;-61
2020/12/12 06:40:00;;;;;;;12.43;9.10;;;0.30;99.90;;;-1.70;100.00;98738.72;5005814;27;100731;-62
2020/12/12 06:42:36;;;;;;;19.27;14.87;;;0.20;99.90;;;-1.69;100.00;98729.06;5005446;27;100061;-62
2020/12/12 06:45:30;;;;;;;15.73;12.43;;;0.20;99.90;;;-1.71;100.00;98734.44;5003397;27;99915;-62
2020/12/12 06:47:57;;;;;;;13.90;11.23;;;0.10;99.90;;;-1.70;100.00;98730.03;5003168;27;101526;-60
2020/12/12 06:50:29;;;;;;;11.23;9.17;;;0.30;99.90;;;-1.74;100.00;98729.44;5007529;27;100384;-62
2020/12/12 06:52:57;;;;;;;12.40;9.50;;;0.20;99.90;;;-1.79;100.00;98731.59;5024667;27;100253;-61
2020/12/12 06:55:24;;;;;;;12.30;8.70;;;0.30;99.90;;;-1.71;100.00;98741.47;5024638;27;100043;-62
2020/12/12 06:57:56;;;;;;;11.90;9.17;;;-0.90;99.90;;;-1.73;100.00;98740.78;5023495;27;101288;-61
2020/12/12 07:00:30;;;;;;;13.17;9.83;;;0.30;99.90;;;-1.77;100.00;98737.53;5023459;27;100299;-64
2020/12/12 07:02:58;;;;;;;11.33;8.57;;;0.20;99.90;;;-1.76;100.00;98743.63;5025411;27;100132;-61
2020/12/12 07:05:29;;;;;;;14.67;10.83;;;0.30;99.90;;;-1.73;100.00;98744.19;5015214;27;99992;-62
2020/12/12 07:08:02;;;;;;;14.87;10.73;;;0.30;99.90;;;-1.75;100.00;98748.75;5004371;27;101885;-62
2020/12/12 07:10:30;;;;;;;12.63;9.53;;;0.30;99.90;;;-1.71;100.00;98747.53;5004034;27;100410;-61
2020/12/12 07:12:58;;;;;;;15.77;10.93;;;0.30;99.90;;;-1.70;100.00;98740.50;5004784;27;100195;-63
2020/12/12 07:15:28;;;;;;;14.20;10.53;;;0.20;99.90;;;-1.69;100.00;98748.28;5004568;27;100150;-62
2020/12/12 07:17:55;;;;;;;14.90;11.47;;;0.30;99.90;;;-1.71;100.00;98750.16;5004570;27;100966;-63
2020/12/12 07:20:22;;;;;;;15.13;11.10;;;0.30;99.90;;;-1.67;100.00;98759.47;5023349;27;102066;-62
2020/12/12 07:22:48;;;;;;;11.00;9.53;;;0.30;99.90;;;-1.62;100.00;98754.72;5023388;27;100087;-62
2020/12/12 07:25:16;;;;;;;11.73;9.10;;;0.30;99.90;;;-1.61;100.00;98753.78;5023271;27;100025;-62
2020/12/12 07:27:42;;;;;;;11.17;8.77;;;0.30;99.90;;;-1.59;100.00;98754.47;5023695;27;100936;-62
2020/12/12 07:30:08;;;;;;;11.47;9.33;;;0.50;99.90;;;-1.54;100.00;98759.38;5023318;27;99961;-62
2020/12/12 07:32:35;;;;;;;13.23;9.57;;;0.60;99.90;;;-1.54;100.00;98762.00;5024111;27;100157;-61
2020/12/12 07:35:02;;;;;;;15.03;10.40;;;0.50;99.90;;;-1.54;100.00;98760.19;5023504;27;100326;-62
2020/12/12 07:37:28;;;;;;;17.10;13.60;;;0.50;99.90;;;-1.48;100.00;98767.56;5023795;27;101451;-63
2020/12/12 07:39:55;;;;;;;14.17;9.30;;;0.60;99.90;;;-1.47;100.00;98761.38;5023819;27;100377;-62
2020/12/12 07:42:24;;;;;;;11.53;9.60;;;0.60;99.90;;;-1.44;100.00;98770.81;5023872;27;100170;-62
2020/12/12 07:44:59;;;;;;;12.00;9.50;;;0.60;99.90;;;-1.43;100.00;98771.63;5024596;27;100020;-62
2020/12/12 07:47:25;;;;;;;11.80;9.17;;;0.70;99.90;;;-1.38;100.00;98772.13;5022578;27;100871;-62
2020/12/12 07:50:01;;;;;;;12.87;9.60;;;0.80;99.90;;;-1.33;100.00;98775.22;5023530;27;100105;-62
2020/12/12 07:52:28;;;;;;;16.60;10.27;;;0.90;99.90;;;-1.34;100.00;98771.75;5013589;27;100325;-62
2020/12/12 07:54:58;;;;;;;12.53;9.10;;;0.90;99.90;;;-1.30;100.00;98780.22;5023587;27;100223;-63
2020/12/12 07:57:25;;;;;;;13.13;9.97;;;0.90;99.90;;;-1.25;100.00;98785.97;5026966;27;102454;-62
2020/12/12 07:59:52;;;;;;;11.97;9.10;;;0.90;99.90;;;-1.27;100.00;98788.69;5026219;27;100673;-62
2020/12/12 08:02:18;;;;;;;15.37;11.63;;;0.90;99.90;;;-1.21;100.00;98790.81;5027212;27;100121;-62
2020/12/12 08:04:45;;;;;;;15.50;12.60;;;0.90;99.90;;;-1.18;100.00;98784.50;5026578;27;100184;-62
2020/12/12 08:07:13;;;;;;;11.67;9.07;;;0.90;99.90;;;-1.12;100.00;98795.38;5027316;27;101015;-63
2020/12/12 08:09:48;;;;;;;11.30;8.30;;;1.10;99.90;;;-1.09;100.00;98797.72;5015562;27;103754;-62
2020/12/12 08:12:28;;;;;;;11.10;8.40;;;1.00;99.90;;;-1.04;100.00;98792.13;5016930;27;100127;-62
2020/12/12 08:15:01;;;;;;;8.80;7.80;;;2.30;99.90;;;-1.02;100.00;98798.09;5032671;27;99696;-63
2020/12/12 08:17:30;;;;;;;9.60;7.67;;;1.20;99.90;;;-0.99;100.00;98797.84;5022069;27;100698;-62
2020/12/12 08:19:58;;;;;;;9.13;7.73;;;1.30;99.90;;;-0.96;100.00;98805.47;5005374;27;101489;-62
2020/12/12 08:22:26;;;;;;;9.13;7.10;;;1.40;99.90;;;-0.90;100.00;98802.38;5007350;27;100246;-62
2020/12/12 08:24:53;;;;;;;9.83;7.57;;;1.40;99.90;;;-0.87;100.00;98804.75;5008633;27;100942;-62
2020/12/12 08:27:24;;;;;;;11.23;7.77;;;1.50;99.90;;;-0.80;100.00;98798.06;5027008;27;100771;-62
2020/12/12 08:29:53;;;;;;;11.07;8.07;;;1.50;99.90;;;-0.77;100.00;98795.19;5026514;27;100587;-62
2020/12/12 08:32:36;;;;;;;10.20;7.17;;;1.50;99.90;;;-0.71;100.00;98806.97;5006975;27;100290;-63
2020/12/12 08:35:21;;;;;;;8.83;7.20;;;1.60;99.90;;;-0.68;100.00;98808.53;5009901;27;100215;-63
2020/12/12 08:37:57;;;;;;;9.50;6.57;;;1.70;99.90;;;-0.62;100.00;98810.69;5007341;27;101901;-63
2020/12/12 08:40:27;;;;;;;9.10;7.20;;;1.70;99.90;;;-0.58;100.00;98810.28;5011282;27;100310;-63
2020/12/12 08:43:00;;;;;;;10.03;7.90;;;1.70;99.90;;;-0.55;100.00;98810.03;5026561;27;100288;-62
2020/12/12 08:45:28;;;;;;;9.70;8.67;;;1.70;99.90;;;-0.47;100.00;98812.03;5023843;27;100028;-62
2020/12/12 08:48:07;;;;;;;1394.67;771.60;;;1.90;99.90;;;-0.38;100.00;98808.69;5018758;27;100755;-63
2020/12/12 08:50:51;;;;;;;38.37;29.17;;;2.00;99.90;;;-0.23;100.00;98819.72;5008239;27;100492;-63
2020/12/12 08:53:38;;;;;;;19.50;15.40;;;2.10;99.90;;;-0.16;100.00;98820.91;5021166;27;100025;-62
2020/12/12 08:56:10;;;;;;;16.97;15.27;;;2.10;99.90;;;-0.09;100.00;98822.03;5022523;27;101539;-63
2020/12/12 08:58:44;;;;;;;23.30;21.23;;;2.20;99.90;;;-0.10;100.00;98823.84;5007200;27;100614;-62
2020/12/12 09:01:35;;;;;;;514.10;340.07;;;2.30;99.90;;;-0.01;100.00;98824.91;5015002;27;100805;-63
2020/12/12 09:04:15;;;;;;;19.33;14.77;;;2.40;99.90;;;0.09;100.00;98833.69;5006326;27;100166;-62
2020/12/12 09:06:54;;;;;;;16.07;13.97;;;2.50;99.90;;;0.19;100.00;98836.38;5013443;27;100362;-63
2020/12/12 09:09:23;;;;;;;105.03;97.20;;;2.70;99.90;;;0.31;100.00;98836.19;5015774;27;100664;-62
2020/12/12 09:11:59;;;;;;;13.50;12.17;;;2.70;99.90;;;0.39;100.00;98835.53;5005375;27;101432;-62
2020/12/12 09:14:28;;;;;;;30.93;28.30;;;2.80;99.90;;;0.58;100.00;98827.75;5005790;27;100138;-62
2020/12/12 09:16:57;;;;;;;7.70;6.60;;;3.60;99.90;;;0.54;100.00;98833.41;5005531;27;100052;-63
2020/12/12 09:19:27;;;;;;;15.43;12.40;;;2.90;99.90;;;0.64;100.00;98836.91;5005952;27;101249;-63
2020/12/12 09:21:56;;;;;;;15.47;12.43;;;3.00;99.90;;;0.75;100.00;98834.19;5009320;27;100523;-62
2020/12/12 09:24:23;;;;;;;12.33;10.13;;;3.30;99.90;;;0.85;100.00;98834.25;5005127;27;99919;-62
2020/12/12 09:26:52;;;;;;;15.60;10.93;;;3.30;99.90;;;0.87;100.00;98832.31;5022707;27;99759;-61
2020/12/12 09:29:18;;;;;;;10.17;8.13;;;3.50;99.90;;;0.93;100.00;98837.06;5024818;27;100329;-62
2020/12/12 09:31:46;;;;;;;18.37;16.77;;;3.70;99.90;;;1.12;100.00;98833.63;5024269;27;100191;-62
2020/12/12 09:34:12;;;;;;;8.23;7.37;;;3.70;99.90;;;1.33;100.00;98829.13;5024283;27;100175;-61
2020/12/12 09:36:40;;;;;;;12.03;9.80;;;3.80;99.90;;;1.40;100.00;98830.25;5011635;27;100202;-61
2020/12/12 09:39:06;;;;;;;8.70;7.40;;;4.00;99.90;;;1.57;100.00;98837.50;5024916;27;100808;-62
2020/12/12 09:41:33;;;;;;;7.50;5.93;;;4.10;99.90;;;1.63;100.00;98839.59;5025106;27;100386;-62
2020/12/12 09:43:59;;;;;;;10.30;9.00;;;4.30;99.90;;;1.84;100.00;98834.22;5025234;27;100166;-60
2020/12/12 09:46:26;;;;;;;13.63;10.03;;;4.50;99.90;;;2.04;100.00;98832.38;5025745;27;100345;-63
2020/12/12 09:48:53;;;;;;;9.33;8.17;;;4.80;99.90;;;2.04;100.00;98835.03;5025001;27;101721;-63
2020/12/12 09:51:21;;;;;;;7.17;5.90;;;5.00;99.90;;;2.21;100.00;98841.41;5024525;27;101153;-63
2020/12/12 09:53:49;;;;;;;17.37;14.37;;;5.10;99.90;;;2.36;100.00;98846.09;5024434;27;99840;-62
2020/12/12 09:56:16;;;;;;;11.13;9.63;;;5.10;99.90;;;2.32;100.00;98830.72;5022885;27;99963;-63
2020/12/12 09:58:43;;;;;;;11.47;9.13;;;5.40;99.90;;;2.39;100.00;98837.91;5024360;27;100873;-62
2020/12/12 10:01:09;;;;;;;10.37;7.17;;;5.50;99.90;;;2.40;100.00;98834.28;5023293;27;100558;-61
2020/12/12 10:03:36;;;;;;;7.77;6.30;;;5.40;99.90;;;2.38;100.00;98840.69;5025275;27;100207;-63
2020/12/12 10:06:05;;;;;;;8.50;6.00;;;5.50;99.90;;;2.45;100.00;98829.44;5004687;27;99846;-62
2020/12/12 10:08:32;;;;;;;7.50;5.60;;;5.50;99.90;;;2.53;100.00;98839.28;5004715;27;100837;-62